Time;durP1;ratioP1;P1;durP2;ratioP2;P2;SDS_P1;SDS_P2;PMS_P1;PMS_P2;Temp;Humidity;BMP_temperature;BMP_pressure;BME280_temperature;BME280_humidity;BME280_pressure;Samples;Min_cycle;Max_cycle;Signal;HPM_P1;HPM_P2
2021/11/25 00:00:15;;;;;;;0.10;0.10;;;;;;;4.30;70.56;101722.47;7359632;19;20066;-60
2021/11/25 00:02:40;;;;;;;0.10;0.10;;;;;;;4.28;70.71;101719.00;7362919;19;20082;-60
2021/11/25 00:05:07;;;;;;;0.10;0.10;;;;;;;4.27;70.78;101718.13;7362256;19;21475;-60
2021/11/25 00:07:33;;;;;;;0.05;0.05;;;;;;;4.26;70.79;101725.84;7360785;19;20010;-60
2021/11/25 00:09:58;;;;;;;0.10;0.10;;;;;;;4.24;70.79;101723.22;7360052;19;20430;-61
2021/11/25 00:12:24;;;;;;;0.10;0.10;;;;;;;4.23;70.81;101721.50;7358818;19;20044;-61
2021/11/25 00:14:49;;;;;;;0.10;0.10;;;;;;;4.22;70.86;101729.22;7364532;19;20427;-61
2021/11/25 00:17:15;;;;;;;0.10;0.10;;;;;;;4.20;70.75;101730.88;7360426;19;20043;-61
2021/11/25 00:19:41;;;;;;;0.10;0.10;;;;;;;4.14;70.89;101706.66;7363524;19;20694;-61
2021/11/25 00:22:06;;;;;;;0.10;0.10;;;;;;;4.17;70.84;101711.03;7362131;19;20029;-61
2021/11/25 00:24:32;;;;;;;0.10;0.10;;;;;;;4.13;71.06;101706.66;7362949;19;20015;-60
2021/11/25 00:26:57;;;;;;;0.10;0.10;;;;;;;4.13;71.06;101710.09;7362121;19;20018;-60
2021/11/25 00:29:23;;;;;;;0.10;0.10;;;;;;;4.12;71.04;101716.13;7356683;19;20044;-61
2021/11/25 00:31:49;;;;;;;0.00;0.00;;;;;;;4.09;71.15;101708.28;7358519;19;20736;-60
2021/11/25 00:34:14;;;;;;;0.10;0.10;;;;;;;4.13;71.34;101714.41;7354802;19;20014;-61
2021/11/25 00:36:40;;;;;;;0.10;0.10;;;;;;;4.13;71.30;101715.25;7361136;19;20107;-59
2021/11/25 00:39:06;;;;;;;0.10;0.10;;;;;;;4.14;71.28;101716.13;7362789;19;20017;-61
2021/11/25 00:41:31;;;;;;;0.05;0.05;;;;;;;4.11;71.62;101705.75;7356683;19;20069;-61
2021/11/25 00:43:56;;;;;;;0.10;0.10;;;;;;;4.16;71.38;101714.47;7362056;19;20039;-61
2021/11/25 00:46:22;;;;;;;0.00;0.00;;;;;;;4.16;71.42;101712.75;7363878;19;20013;-61
2021/11/25 00:48:48;;;;;;;0.10;0.10;;;;;;;4.15;71.23;101712.69;7361974;19;20384;-61
2021/11/25 00:51:13;;;;;;;0.10;0.10;;;;;;;4.19;71.20;101727.44;7363344;19;20047;-61
2021/11/25 00:53:39;;;;;;;0.10;0.10;;;;;;;4.19;71.34;101727.44;7359845;19;20010;-61
2021/11/25 00:56:05;;;;;;;0.10;0.10;;;;;;;4.18;71.48;101719.66;7360676;19;20023;-60
2021/11/25 00:58:30;;;;;;;0.10;0.10;;;;;;;4.18;71.07;101714.50;7354351;19;20014;-61
2021/11/25 01:00:56;;;;;;;0.10;0.10;;;;;;;4.16;71.08;101712.75;7360723;19;20010;-61
2021/11/25 01:03:21;;;;;;;0.00;0.00;;;;;;;4.17;71.37;101721.38;7362760;19;20018;-62
2021/11/25 01:05:47;;;;;;;0.00;0.00;;;;;;;4.17;71.25;101718.78;7362184;19;20019;-61
2021/11/25 01:08:14;;;;;;;0.00;0.00;;;;;;;4.15;71.46;101723.03;7356767;19;20031;-59
2021/11/25 01:10:40;;;;;;;0.10;0.10;;;;;;;4.15;71.57;101712.69;7360799;19;20021;-60
2021/11/25 01:13:05;;;;;;;0.10;0.10;;;;;;;4.15;71.57;101713.56;7362944;19;20021;-61
2021/11/25 01:15:33;;;;;;;0.10;0.10;;;;;;;4.16;71.33;101720.50;7363740;19;20015;-59
2021/11/25 01:18:12;;;;;;;0.10;0.10;;;;;;;4.17;70.98;101721.38;7356899;19;20018;-61
2021/11/25 01:20:39;;;;;;;0.10;0.10;;;;;;;4.15;71.56;101716.16;7362119;19;20078;-60
2021/11/25 01:23:09;;;;;;;0.10;0.10;;;;;;;4.15;71.38;101717.88;7359978;19;20193;-58
2021/11/25 01:25:35;;;;;;;0.10;0.10;;;;;;;4.15;71.52;101720.47;7360311;19;20021;-61
2021/11/25 01:28:01;;;;;;;0.10;0.10;;;;;;;4.04;71.37;101709.03;7359378;19;20015;-60
2021/11/25 01:30:27;;;;;;;0.03;0.03;;;;;;;4.13;71.47;101719.56;7360816;19;20010;-61
2021/11/25 01:32:52;;;;;;;0.10;0.10;;;;;;;4.14;71.60;101726.47;7360871;19;20014;-61
2021/11/25 01:35:18;;;;;;;0.10;0.10;;;;;;;4.13;71.61;101719.56;7362008;19;20013;-60
2021/11/25 01:37:43;;;;;;;0.00;0.00;;;;;;;4.14;71.45;101729.06;7359520;19;20074;-61
2021/11/25 01:40:12;;;;;;;0.10;0.10;;;;;;;4.13;71.35;101727.31;7361766;19;20023;-61
2021/11/25 01:42:39;;;;;;;0.10;0.10;;;;;;;4.12;71.46;101728.16;7360024;19;20039;-60
2021/11/25 01:45:07;;;;;;;0.10;0.10;;;;;;;4.12;71.21;101728.16;7358477;19;20023;-58
2021/11/25 01:47:33;;;;;;;;;;;;;;;4.14;70.18;101732.50;7362990;19;20850;-60
2021/11/25 01:49:58;;;;;;;0.00;0.00;;;;;;;4.13;71.26;101735.94;7360083;19;19922;-60
2021/11/25 01:52:24;;;;;;;0.10;0.10;;;;;;;4.12;71.50;101739.38;7360725;19;20095;-61
2021/11/25 01:54:49;;;;;;;0.00;0.00;;;;;;;4.12;71.45;101738.50;7360859;19;20014;-60
2021/11/25 01:57:15;;;;;;;0.10;0.10;;;;;;;4.13;71.51;101745.41;7361145;19;20025;-61
2021/11/25 01:59:40;;;;;;;0.10;0.10;;;;;;;4.12;71.43;101748.84;7362977;19;20018;-61
2021/11/25 02:02:07;;;;;;;0.00;0.00;;;;;;;4.11;71.46;101747.97;7357351;19;20011;-60
2021/11/25 02:04:33;;;;;;;0.00;0.00;;;;;;;3.99;71.21;101731.34;7361797;19;20824;-61
2021/11/25 02:06:58;;;;;;;0.10;0.10;;;;;;;4.10;71.31;101756.53;7360434;19;20062;-61
2021/11/25 02:09:24;;;;;;;0.10;0.10;;;;;;;4.07;71.36;101745.31;7357978;19;20052;-59
2021/11/25 02:11:50;;;;;;;0.10;0.10;;;;;;;4.05;71.31;101746.97;7362172;19;20035;-60
2021/11/25 02:14:16;;;;;;;0.00;0.00;;;;;;;4.07;71.29;101742.72;7357192;19;20563;-61
2021/11/25 02:16:41;;;;;;;0.00;0.00;;;;;;;4.07;71.60;101745.31;7357564;19;20009;-61
2021/11/25 02:19:08;;;;;;;0.00;0.00;;;;;;;4.07;71.21;101740.13;7360015;19;20077;-61
2021/11/25 02:21:35;;;;;;;0.00;0.00;;;;;;;4.07;71.37;101745.31;7360325;19;20359;-60
2021/11/25 02:24:02;;;;;;;0.10;0.10;;;;;;;4.08;71.13;101752.22;7355691;19;20562;-60
2021/11/25 02:26:28;;;;;;;0.10;0.10;;;;;;;4.08;70.86;101747.91;7359400;19;20510;-61
2021/11/25 02:28:54;;;;;;;0.10;0.10;;;;;;;4.06;71.35;101739.25;7359593;19;20014;-60
2021/11/25 02:31:20;;;;;;;0.10;0.10;;;;;;;4.09;71.51;101759.09;7360714;19;20002;-60
2021/11/25 02:33:45;;;;;;;0.00;0.00;;;;;;;4.10;71.35;101751.38;7358525;19;20010;-61
2021/11/25 02:36:11;;;;;;;0.10;0.10;;;;;;;4.11;71.15;101757.44;7360539;19;20476;-60
2021/11/25 02:38:37;;;;;;;0.00;0.00;;;;;;;4.12;71.17;101764.34;7360838;19;20022;-59
2021/11/25 02:41:03;;;;;;;0.10;0.10;;;;;;;4.07;71.26;101750.47;7359230;19;20010;-61
2021/11/25 02:43:30;;;;;;;0.05;0.05;;;;;;;4.12;71.37;101757.47;7360252;19;20050;-60
2021/11/25 02:45:59;;;;;;;0.10;0.10;;;;;;;4.08;71.17;101747.03;7357821;19;20045;-61
2021/11/25 02:48:28;;;;;;;0.10;0.10;;;;;;;4.14;71.37;101752.31;7356710;19;20023;-60
2021/11/25 02:50:55;;;;;;;0.00;0.00;;;;;;;4.13;71.08;101760.94;7358052;19;20011;-60
2021/11/25 02:53:24;;;;;;;0.00;0.00;;;;;;;4.13;71.29;101755.75;7359679;19;20026;-62
2021/11/25 02:55:53;;;;;;;0.00;0.00;;;;;;;4.05;71.08;101752.13;7360299;19;20010;-61
2021/11/25 02:58:18;;;;;;;0.10;0.10;;;;;;;4.11;71.27;101752.28;7359347;19;20014;-60
2021/11/25 03:00:47;;;;;;;0.10;0.10;;;;;;;4.14;71.02;101752.31;7363617;19;20034;-60
2021/11/25 03:03:14;;;;;;;0.10;0.10;;;;;;;4.10;71.19;101751.38;7361414;19;20010;-61
2021/11/25 03:05:42;;;;;;;0.00;0.00;;;;;;;4.14;71.20;101767.84;7366580;19;20051;-60
2021/11/25 03:08:09;;;;;;;0.10;0.10;;;;;;;4.14;70.87;101758.38;7368080;19;20007;-61
2021/11/25 03:10:37;;;;;;;0.10;0.10;;;;;;;3.83;71.10;101710.34;7358217;19;20007;-60
2021/11/25 03:13:05;;;;;;;0.10;0.10;;;;;;;4.14;71.30;101762.66;7368207;19;20018;-59
2021/11/25 03:15:33;;;;;;;0.00;0.00;;;;;;;4.15;70.89;101764.41;7355863;19;20010;-60
2021/11/25 03:17:58;;;;;;;0.10;0.10;;;;;;;4.14;71.04;101760.94;7366920;19;20036;-59
2021/11/25 03:20:24;;;;;;;0.00;0.00;;;;;;;4.14;71.03;101767.84;7365207;19;20007;-61
2021/11/25 03:22:49;;;;;;;0.00;0.00;;;;;;;4.12;70.89;101766.94;7367872;19;20011;-60
2021/11/25 03:25:15;;;;;;;0.10;0.10;;;;;;;4.11;71.02;101770.38;7368325;19;20029;-60
2021/11/25 03:27:40;;;;;;;0.10;0.10;;;;;;;4.06;70.92;101765.09;7366501;19;20025;-60
2021/11/25 03:30:06;;;;;;;0.10;0.10;;;;;;;4.08;71.03;101770.28;7366631;19;20086;-61
2021/11/25 03:32:32;;;;;;;0.10;0.10;;;;;;;4.07;71.21;101761.69;7364610;19;20037;-60
2021/11/25 03:34:57;;;;;;;0.10;0.10;;;;;;;4.07;70.76;101765.97;7366928;19;20074;-61
2021/11/25 03:37:23;;;;;;;0.10;0.10;;;;;;;4.05;71.14;101773.66;7367578;19;20027;-61
2021/11/25 03:39:48;;;;;;;0.10;0.10;;;;;;;4.04;70.76;101771.94;7367523;19;20014;-61
2021/11/25 03:42:13;;;;;;;0.10;0.10;;;;;;;4.05;71.25;101775.38;7368524;19;20567;-60
2021/11/25 03:44:43;;;;;;;0.00;0.00;;;;;;;4.05;71.14;101772.81;7367842;19;20010;-60
2021/11/25 03:47:08;;;;;;;0.00;0.00;;;;;;;4.00;70.95;101764.09;7367598;19;20006;-60
2021/11/25 03:49:34;;;;;;;0.10;0.10;;;;;;;4.06;70.97;101782.31;7369292;19;20011;-61
2021/11/25 03:51:59;;;;;;;0.08;0.08;;;;;;;4.05;71.12;101777.97;7344146;19;20630;-61
2021/11/25 03:54:24;;;;;;;0.00;0.00;;;;;;;4.06;70.99;101779.75;7364647;19;20006;-61
2021/11/25 03:56:50;;;;;;;0.10;0.10;;;;;;;4.05;70.93;101775.38;7360892;19;20010;-58
2021/11/25 03:59:15;;;;;;;0.10;0.10;;;;;;;4.04;71.00;101771.06;7367109;19;20007;-60
2021/11/25 04:01:41;;;;;;;0.00;0.00;;;;;;;4.00;71.09;101764.94;7367519;19;20026;-60
2021/11/25 04:04:06;;;;;;;0.08;0.08;;;;;;;4.03;70.64;101774.50;7365642;19;20013;-61
2021/11/25 04:06:31;;;;;;;0.10;0.10;;;;;;;4.03;71.04;101769.31;7361819;19;20022;-60
2021/11/25 04:08:57;;;;;;;0.00;0.00;;;;;;;4.03;71.05;101777.09;7365320;19;20014;-61
2021/11/25 04:11:22;;;;;;;0.00;0.00;;;;;;;4.01;70.66;101768.44;7366451;19;20027;-60
2021/11/25 04:13:48;;;;;;;0.05;0.05;;;;;;;4.03;70.88;101777.09;7364932;19;20026;-61
2021/11/25 04:16:14;;;;;;;0.00;0.00;;;;;;;4.01;70.68;101771.03;7369075;19;20106;-60
2021/11/25 04:18:39;;;;;;;0.00;0.00;;;;;;;3.98;70.64;101771.81;7360174;19;20010;-60
2021/11/25 04:21:05;;;;;;;0.08;0.08;;;;;;;4.00;71.00;101774.41;7362485;19;20010;-61
2021/11/25 04:23:30;;;;;;;0.03;0.03;;;;;;;4.00;70.81;101769.25;7362306;19;20013;-60
2021/11/25 04:25:56;;;;;;;0.00;0.00;;;;;;;3.99;70.69;101772.69;7365801;19;20014;-61
2021/11/25 04:28:21;;;;;;;0.10;0.10;;;;;;;3.86;70.34;101748.31;7362223;19;20010;-61
2021/11/25 04:30:52;;;;;;;0.00;0.00;;;;;;;3.96;70.62;101764.88;7368911;19;20010;-61
2021/11/25 04:36:02;;;;;;;0.00;0.00;;;;;;;3.87;70.40;101757.78;7369198;19;20020;-60
2021/11/25 04:38:27;;;;;;;0.00;0.00;;;;;;;3.90;70.70;101778.50;7365662;19;20011;-61
2021/11/25 04:40:59;;;;;;;0.10;0.10;;;;;;;3.89;70.93;101782.81;7369298;19;20370;-60
2021/11/25 04:43:26;;;;;;;0.10;0.10;;;;;;;3.86;70.94;101787.94;7368781;19;20033;-60
2021/11/25 04:45:52;;;;;;;0.00;0.00;;;;;;;3.83;70.90;101787.84;7367465;19;20054;-60
2021/11/25 04:48:21;;;;;;;0.00;0.00;;;;;;;3.80;70.66;101786.91;7364991;19;20384;-61
2021/11/25 04:50:48;;;;;;;0.10;0.10;;;;;;;3.80;70.69;101792.97;7367085;19;20014;-60
2021/11/25 04:53:13;;;;;;;0.00;0.00;;;;;;;3.79;70.86;101792.91;7363665;19;21462;-60
2021/11/25 04:55:40;;;;;;;0.10;0.10;;;;;;;3.77;70.93;101798.06;7364365;19;20485;-60
2021/11/25 04:58:05;;;;;;;0.00;0.00;;;;;;;3.75;70.94;101810.06;7364430;19;20140;-61
2021/11/25 05:00:32;;;;;;;0.08;0.08;;;;;;;3.71;71.08;101799.63;7365260;19;20800;-60
2021/11/25 05:02:57;;;;;;;0.00;0.00;;;;;;;3.60;70.99;101786.47;7366648;19;20090;-60
2021/11/25 05:05:23;;;;;;;0.10;0.10;;;;;;;3.69;70.68;101807.31;7365244;19;20078;-60
2021/11/25 05:07:48;;;;;;;0.10;0.10;;;;;;;3.68;70.87;101804.72;7366545;19;20472;-61
2021/11/25 05:10:14;;;;;;;0.00;0.00;;;;;;;3.67;71.25;101801.25;7366833;19;20007;-61
2021/11/25 05:12:39;;;;;;;0.00;0.00;;;;;;;3.56;70.92;101782.94;7367814;19;20014;-60
2021/11/25 05:15:11;;;;;;;0.00;0.00;;;;;;;3.68;71.40;101797.84;7366777;19;20023;-61
2021/11/25 05:17:37;;;;;;;0.00;0.00;;;;;;;3.68;70.86;101787.50;7361114;19;20018;-62
2021/11/25 05:20:10;;;;;;;0.00;0.00;;;;;;;3.59;71.19;101776.97;7363431;19;20482;-61
2021/11/25 05:22:36;;;;;;;0.10;0.10;;;;;;;3.71;71.15;101807.38;7364055;19;20006;-60
2021/11/25 05:25:02;;;;;;;0.10;0.10;;;;;;;3.73;70.98;101816.03;7364530;19;20110;-60
2021/11/25 05:27:28;;;;;;;0.10;0.10;;;;;;;3.70;71.17;101798.78;7365999;19;20014;-61
2021/11/25 05:29:53;;;;;;;0.10;0.10;;;;;;;3.76;71.29;101811.81;7364685;19;20017;-61
2021/11/25 05:32:19;;;;;;;0.10;0.10;;;;;;;3.76;70.81;101806.66;7365479;19;20016;-61
2021/11/25 05:34:47;;;;;;;0.10;0.10;;;;;;;3.77;70.99;101818.72;7367008;19;21094;-61
2021/11/25 05:37:14;;;;;;;0.10;0.10;;;;;;;3.78;71.05;101815.28;7365711;19;20010;-61
2021/11/25 05:39:40;;;;;;;0.00;0.00;;;;;;;3.77;71.17;101813.56;7365090;19;20086;-61
2021/11/25 05:42:07;;;;;;;0.10;0.10;;;;;;;3.78;71.17;101814.44;7366547;19;20014;-61
2021/11/25 05:44:33;;;;;;;0.00;0.00;;;;;;;3.77;70.93;101816.13;7364159;19;20042;-61
2021/11/25 05:46:58;;;;;;;0.10;0.10;;;;;;;3.77;70.85;101808.38;7363408;19;20516;-60
2021/11/25 05:49:24;;;;;;;0.00;0.00;;;;;;;3.78;71.32;101807.53;7361265;19;20505;-61
2021/11/25 05:51:49;;;;;;;0.10;0.10;;;;;;;3.74;71.22;101807.44;7367661;19;20002;-61
2021/11/25 05:54:14;;;;;;;0.03;0.03;;;;;;;3.78;71.20;101823.03;7365018;19;20010;-60
2021/11/25 05:56:40;;;;;;;0.10;0.10;;;;;;;3.79;70.80;101827.38;7363764;19;20014;-60
2021/11/25 05:59:05;;;;;;;0.10;0.10;;;;;;;3.80;71.06;101826.56;7364978;19;20038;-60
2021/11/25 06:01:31;;;;;;;0.10;0.10;;;;;;;3.79;71.09;101824.78;7355745;19;20011;-60
2021/11/25 06:03:56;;;;;;;0.10;0.10;;;;;;;3.70;70.82;101814.25;7365296;19;20041;-61
2021/11/25 06:06:22;;;;;;;0.10;0.10;;;;;;;3.81;71.02;101820.53;7361757;19;20110;-60
2021/11/25 06:08:49;;;;;;;0.03;0.03;;;;;;;3.60;70.89;101778.72;7364571;19;20464;-61
2021/11/25 06:11:15;;;;;;;0.10;0.10;;;;;;;3.80;71.01;101812.75;7365452;19;20364;-60
2021/11/25 06:13:40;;;;;;;0.05;0.05;;;;;;;3.74;71.07;101808.31;7364269;19;20006;-61
2021/11/25 06:16:05;;;;;;;0.00;0.00;;;;;;;3.80;70.77;101828.25;7365629;19;20111;-60
2021/11/25 06:18:31;;;;;;;0.10;0.10;;;;;;;3.70;71.06;101811.69;7358753;19;20010;-61
2021/11/25 06:20:57;;;;;;;0.08;0.08;;;;;;;3.78;71.11;101841.13;7362586;19;20018;-59
2021/11/25 06:23:22;;;;;;;0.00;0.00;;;;;;;3.77;70.82;101844.56;7365747;19;20602;-61
2021/11/25 06:25:48;;;;;;;0.00;0.00;;;;;;;3.71;71.08;101835.81;7362699;19;20028;-60
2021/11/25 06:28:13;;;;;;;0.10;0.10;;;;;;;3.75;70.88;101846.25;7362687;19;20013;-60
2021/11/25 06:30:39;;;;;;;0.10;0.10;;;;;;;3.74;70.97;101849.63;7362519;19;20013;-60
2021/11/25 06:33:04;;;;;;;0.10;0.10;;;;;;;3.73;70.82;101841.88;7365895;19;20002;-61
2021/11/25 06:35:31;;;;;;;0.10;0.10;;;;;;;3.71;70.80;101836.66;7361806;19;20019;-61
2021/11/25 06:37:56;;;;;;;0.10;0.10;;;;;;;3.70;71.03;101842.69;7364029;19;20010;-61
2021/11/25 06:40:25;;;;;;;0.10;0.10;;;;;;;3.70;71.21;101852.09;7363444;19;20118;-61
2021/11/25 06:42:52;;;;;;;0.10;0.10;;;;;;;3.67;70.97;101840.00;7362026;19;20035;-61
2021/11/25 06:45:17;;;;;;;0.10;0.10;;;;;;;3.66;70.94;101829.66;7363537;19;20014;-61
2021/11/25 06:47:46;;;;;;;0.10;0.10;;;;;;;3.65;71.27;101823.63;7363929;19;20026;-61
2021/11/25 06:50:12;;;;;;;0.00;0.00;;;;;;;3.63;71.26;101828.72;7357780;19;20057;-60
2021/11/25 06:52:38;;;;;;;0.10;0.10;;;;;;;3.62;71.27;101829.56;7363352;19;20011;-61
2021/11/25 06:55:05;;;;;;;0.00;0.00;;;;;;;3.61;71.42;101826.97;7360724;19;20018;-61
2021/11/25 06:57:31;;;;;;;0.10;0.10;;;;;;;3.58;71.35;101824.28;7362377;19;20011;-61
2021/11/25 06:59:56;;;;;;;0.10;0.10;;;;;;;3.50;71.16;101818.97;7361877;19;21017;-60
2021/11/25 07:02:22;;;;;;;0.03;0.03;;;;;;;3.58;71.49;101837.19;7362679;19;20010;-60
2021/11/25 07:04:47;;;;;;;0.08;0.08;;;;;;;3.58;71.15;101834.63;7362212;19;20068;-61
2021/11/25 07:07:12;;;;;;;0.00;0.00;;;;;;;3.59;71.64;101823.44;7360999;19;20052;-60
2021/11/25 07:09:38;;;;;;;0.10;0.10;;;;;;;3.53;71.23;101812.97;7364137;19;20105;-60
2021/11/25 07:12:04;;;;;;;0.10;0.10;;;;;;;3.59;71.76;101823.44;7359145;19;20003;-60
2021/11/25 07:14:29;;;;;;;0.08;0.08;;;;;;;3.60;71.55;101827.81;7359079;19;20363;-60
2021/11/25 07:16:55;;;;;;;0.10;0.10;;;;;;;3.60;71.64;101820.06;7353392;19;20002;-60
2021/11/25 07:19:20;;;;;;;0.00;0.00;;;;;;;3.61;71.80;101816.63;7353034;19;20011;-61
2021/11/25 07:21:46;;;;;;;0.10;0.10;;;;;;;3.57;71.66;101826.00;7356407;19;20010;-61
2021/11/25 07:24:11;;;;;;;0.10;0.10;;;;;;;3.50;71.37;101807.75;7355594;19;20062;-61
2021/11/25 07:26:37;;;;;;;0.00;0.00;;;;;;;3.63;71.44;101841.63;7354671;19;20045;-60
2021/11/25 07:29:02;;;;;;;0.10;0.10;;;;;;;3.66;71.56;101842.56;7348667;19;20810;-61
2021/11/25 07:31:29;;;;;;;0.10;0.10;;;;;;;3.66;71.33;101840.84;7356033;19;20018;-61
2021/11/25 07:33:58;;;;;;;0.10;0.10;;;;;;;3.64;71.33;101842.50;7359182;19;20003;-61
2021/11/25 07:36:24;;;;;;;0.10;0.10;;;;;;;3.68;71.61;101858.97;7354816;19;20022;-60
2021/11/25 07:38:49;;;;;;;0.00;0.00;;;;;;;3.69;71.27;101871.03;7360465;19;21463;-61
2021/11/25 07:41:15;;;;;;;0.10;0.10;;;;;;;3.68;71.37;101877.91;7355767;19;20014;-60
2021/11/25 07:43:41;;;;;;;0.10;0.10;;;;;;;3.68;71.48;101869.28;7358651;19;20418;-61
2021/11/25 07:46:06;;;;;;;0.00;0.00;;;;;;;3.55;71.15;101856.09;7359310;19;20094;-60
2021/11/25 07:48:32;;;;;;;0.00;0.00;;;;;;;3.68;71.26;101858.97;7364610;19;20044;-60
2021/11/25 07:50:57;;;;;;;0.10;0.10;;;;;;;3.65;71.32;101854.63;7365403;19;20015;-60
2021/11/25 07:53:23;;;;;;;0.00;0.00;;;;;;;3.68;71.49;101857.25;7364936;19;20022;-60
2021/11/25 07:55:49;;;;;;;0.10;0.10;;;;;;;3.51;71.37;101831.03;7368396;19;20819;-60
2021/11/25 07:58:14;;;;;;;0.10;0.10;;;;;;;3.61;71.41;101855.38;7366210;19;20058;-60
2021/11/25 08:00:39;;;;;;;0.10;0.10;;;;;;;3.67;71.15;101883.94;7364414;19;20085;-60
2021/11/25 08:03:05;;;;;;;0.10;0.10;;;;;;;3.68;71.52;101885.66;7365038;19;20094;-61
2021/11/25 08:05:30;;;;;;;0.00;0.00;;;;;;;3.59;71.33;101873.38;7365460;19;20006;-61
2021/11/25 08:07:58;;;;;;;0.00;0.00;;;;;;;3.58;71.30;101883.69;7367166;19;20007;-61
2021/11/25 08:10:25;;;;;;;0.10;0.10;;;;;;;3.70;71.72;101899.50;7358991;19;20040;-59
2021/11/25 08:12:51;;;;;;;0.00;0.00;;;;;;;3.69;71.48;101908.06;7367380;19;20037;-59
2021/11/25 08:15:17;;;;;;;0.10;0.10;;;;;;;3.71;71.55;101915.88;7362912;19;20097;-60
2021/11/25 08:17:43;;;;;;;0.10;0.10;;;;;;;3.67;71.27;101914.91;7360451;19;20034;-60
2021/11/25 08:20:10;;;;;;;0.10;0.10;;;;;;;3.73;71.66;101921.94;7358879;19;20010;-61
2021/11/25 08:22:35;;;;;;;0.10;0.10;;;;;;;3.73;71.37;101924.53;7367152;19;20018;-61
2021/11/25 08:25:02;;;;;;;0.10;0.10;;;;;;;3.70;71.39;101920.19;7366035;19;20483;-60
2021/11/25 08:27:31;;;;;;;0.00;0.00;;;;;;;3.76;71.62;101916.88;7369524;19;20032;-60
2021/11/25 08:29:56;;;;;;;0.10;0.10;;;;;;;3.77;71.68;101911.72;7369457;19;20014;-61
2021/11/25 08:32:21;;;;;;;0.10;0.10;;;;;;;3.78;71.63;101910.88;7365092;19;20010;-60
2021/11/25 08:34:47;;;;;;;0.10;0.10;;;;;;;3.73;71.56;101914.19;7367133;19;20026;-60
2021/11/25 08:37:12;;;;;;;0.10;0.10;;;;;;;3.78;71.28;101913.47;7367321;19;20347;-60
2021/11/25 08:39:38;;;;;;;0.10;0.10;;;;;;;3.82;71.69;101910.13;7369786;19;20007;-61
2021/11/25 08:42:08;;;;;;;0.10;0.10;;;;;;;3.86;71.47;101917.13;7368027;19;20106;-60
2021/11/25 08:44:34;;;;;;;0.00;0.00;;;;;;;3.86;71.26;101911.09;7360933;19;20011;-60
2021/11/25 08:47:00;;;;;;;0.00;0.00;;;;;;;3.89;71.65;101896.50;7367342;19;20777;-61
2021/11/25 08:49:26;;;;;;;0.10;0.10;;;;;;;3.92;71.33;101894.84;7367151;19;20030;-61
2021/11/25 08:51:51;;;;;;;0.05;0.05;;;;;;;3.87;71.46;101880.09;7364925;19;20002;-60
2021/11/25 08:54:17;;;;;;;0.10;0.10;;;;;;;3.97;71.43;101903.59;7365117;19;20045;-61
2021/11/25 08:56:43;;;;;;;0.10;0.10;;;;;;;4.01;71.32;101908.00;7365485;19;20010;-61
2021/11/25 08:59:08;;;;;;;0.00;0.00;;;;;;;4.04;71.50;101915.81;7347296;19;20011;-60
2021/11/25 09:01:34;;;;;;;0.00;0.00;;;;;;;4.08;71.45;101896.94;7342035;19;20014;-61
2021/11/25 09:03:59;;;;;;;0.03;0.03;;;;;;;4.15;71.26;101904.00;7359183;19;20383;-61
2021/11/25 09:06:25;;;;;;;0.10;0.10;;;;;;;4.25;71.30;101913.72;7348634;19;20046;-58
2021/11/25 09:08:51;;;;;;;0.00;0.00;;;;;;;4.31;71.54;101910.38;7358892;19;20471;-60
2021/11/25 09:11:17;;;;;;;0.10;0.10;;;;;;;4.48;71.36;101913.34;7357724;19;20081;-61
2021/11/25 09:13:43;;;;;;;0.00;0.00;;;;;;;4.60;70.98;101917.06;7358010;19;20098;-61
2021/11/25 09:16:08;;;;;;;0.00;0.00;;;;;;;4.80;71.14;101921.78;7359039;19;20030;-61
2021/11/25 09:18:34;;;;;;;0.00;0.00;;;;;;;4.98;71.19;101905.78;7358530;19;20006;-61
2021/11/25 09:21:01;;;;;;;0.00;0.00;;;;;;;5.11;70.63;101893.06;7360059;19;20014;-61
2021/11/25 09:23:26;;;;;;;0.00;0.00;;;;;;;5.45;70.21;101901.47;7366514;19;20021;-61
2021/11/25 09:25:52;;;;;;;0.00;0.00;;;;;;;5.63;70.03;101894.00;7359268;19;20011;-61
2021/11/25 09:28:24;;;;;;;0.00;0.00;;;;;;;5.81;69.45;101888.25;7364873;19;20014;-61
2021/11/25 09:30:51;;;;;;;0.00;0.00;;;;;;;5.93;69.45;101888.47;7364158;19;20015;-61
2021/11/25 09:33:17;;;;;;;0.00;0.00;;;;;;;6.05;69.38;101902.47;7364072;19;20014;-61
2021/11/25 09:35:42;;;;;;;0.00;0.00;;;;;;;6.15;69.23;101906.94;7356513;19;20006;-61
2021/11/25 09:38:10;;;;;;;0.10;0.10;;;;;;;6.33;69.28;101914.97;7364621;19;20010;-61
2021/11/25 09:40:38;;;;;;;0.00;0.00;;;;;;;6.43;68.66;101901.28;7362900;19;20006;-60
2021/11/25 09:43:07;;;;;;;0.10;0.10;;;;;;;6.69;68.32;101921.50;7358372;19;20458;-60
2021/11/25 09:45:36;;;;;;;0.00;0.00;;;;;;;6.89;68.30;101926.97;7360548;19;20479;-61
2021/11/25 09:48:05;;;;;;;0.00;0.00;;;;;;;7.07;67.70;101926.31;7365296;19;20014;-61
2021/11/25 09:50:32;;;;;;;0.10;0.10;;;;;;;7.26;67.56;101933.47;7364664;19;20022;-61
2021/11/25 09:53:01;;;;;;;0.10;0.10;;;;;;;7.38;67.40;101930.97;7360607;19;20476;-61
2021/11/25 09:55:27;;;;;;;0.10;0.10;;;;;;;7.58;67.10;101932.91;7359145;19;20014;-60
2021/11/25 09:57:52;;;;;;;0.10;0.10;;;;;;;7.72;66.32;101928.72;7359915;19;20034;-61
2021/11/25 10:00:23;;;;;;;0.10;0.10;;;;;;;7.95;66.64;101921.06;7363508;19;20014;-61
2021/11/25 10:02:49;;;;;;;0.10;0.10;;;;;;;8.08;66.17;101930.72;7363581;19;21838;-61
2021/11/25 10:05:15;;;;;;;0.10;0.10;;;;;;;8.28;65.69;101926.53;7362026;19;20011;-61
2021/11/25 10:07:45;;;;;;;0.10;0.10;;;;;;;8.38;65.41;101898.88;7354644;19;20014;-61
2021/11/25 10:10:30;;;;;;;0.10;0.10;;;;;;;8.80;66.40;101921.63;7358108;19;20010;-61
2021/11/25 10:13:11;;;;;;;0.00;0.00;;;;;;;9.02;64.73;101938.22;7362470;19;20360;-60
2021/11/25 10:15:38;;;;;;;0.00;0.00;;;;;;;9.18;63.75;101933.06;7364405;19;20119;-61
2021/11/25 10:18:09;;;;;;;0.00;0.00;;;;;;;9.31;63.40;101935.69;7364162;19;20068;-61
2021/11/25 10:20:40;;;;;;;0.00;0.00;;;;;;;9.37;63.25;101940.03;7356081;19;20421;-60
2021/11/25 10:23:07;;;;;;;0.10;0.10;;;;;;;9.29;62.49;101939.16;7361891;19;20036;-61
2021/11/25 10:25:56;;;;;;;0.03;0.03;;;;;;;9.29;63.84;101936.56;7358812;19;20014;-61
2021/11/25 10:28:26;;;;;;;0.00;0.00;;;;;;;9.21;63.02;101933.06;7362172;19;20396;-61
2021/11/25 10:30:58;;;;;;;0.10;0.10;;;;;;;9.14;63.00;101932.19;7362513;19;20009;-60
2021/11/25 10:33:28;;;;;;;0.10;0.10;;;;;;;9.13;63.35;101934.78;7362413;19;20014;-60
2021/11/25 10:38:55;;;;;;;0.00;0.00;;;;;;;9.32;63.85;101932.19;7361585;19;20026;-62
2021/11/25 10:41:21;;;;;;;0.00;0.00;;;;;;;9.42;63.56;101927.00;7359140;19;20816;-61
2021/11/25 10:44:07;;;;;;;0.00;0.00;;;;;;;9.87;64.71;101954.88;7358824;19;20018;-59
2021/11/25 10:46:37;;;;;;;0.00;0.00;;;;;;;10.10;63.22;101953.16;7247561;19;2004298;-61
2021/11/25 10:49:03;;;;;;;0.00;0.00;;;;;;;10.25;62.55;101947.06;7360842;19;20014;-61
2021/11/25 10:51:32;;;;;;;0.00;0.00;;;;;;;10.51;62.22;101949.63;7362768;19;20017;-62
2021/11/25 10:54:17;;;;;;;0.00;0.00;;;;;;;10.73;62.40;101953.03;7360886;19;20014;-61
2021/11/25 10:56:49;;;;;;;0.00;0.00;;;;;;;10.82;61.04;101952.16;7363940;19;20013;-61
2021/11/25 10:59:19;;;;;;;0.00;0.00;;;;;;;10.89;60.58;101943.41;7359749;19;20007;-61
2021/11/25 11:01:50;;;;;;;0.00;0.00;;;;;;;10.98;61.08;101948.59;7357139;19;20600;-61
2021/11/25 11:04:17;;;;;;;0.00;0.00;;;;;;;11.03;60.76;101946.81;7356963;19;20010;-61
2021/11/25 11:06:44;;;;;;;0.10;0.10;;;;;;;11.13;60.74;101940.69;7357210;19;20007;-61
2021/11/25 11:09:35;;;;;;;0.00;0.00;;;;;;;11.35;61.46;101943.16;7360676;19;20015;-61
2021/11/25 11:12:29;;;;;;;0.00;0.00;;;;;;;11.52;61.80;101949.19;7352226;19;20010;-62
2021/11/25 11:15:00;;;;;;;0.00;0.00;;;;;;;11.57;59.31;101939.56;7257834;19;2004149;-62
2021/11/25 11:17:32;;;;;;;0.00;0.00;;;;;;;11.75;59.42;101935.06;7361316;19;20011;-61
2021/11/25 11:20:10;;;;;;;0.10;0.10;;;;;;;11.94;60.04;101923.59;7371620;19;20010;-62
2021/11/25 11:22:36;;;;;;;0.00;0.00;;;;;;;12.02;58.92;101911.31;7361676;19;20007;-61
2021/11/25 11:25:04;;;;;;;0.05;0.05;;;;;;;12.16;58.65;101903.28;7370390;19;20023;-62
2021/11/25 11:27:29;;;;;;;0.00;0.00;;;;;;;12.27;58.00;101887.50;7364595;19;20424;-61
2021/11/25 11:29:55;;;;;;;0.08;0.08;;;;;;;12.38;57.68;101886.50;7369582;19;20014;-61
2021/11/25 11:32:21;;;;;;;0.00;0.00;;;;;;;12.45;57.77;101882.03;7365364;19;20017;-61
2021/11/25 11:34:51;;;;;;;0.00;0.00;;;;;;;12.53;58.19;101866.25;7367517;19;20006;-62
2021/11/25 11:37:18;;;;;;;0.00;0.00;;;;;;;12.25;56.93;101808.06;7367601;19;20806;-61